createdAt,value
2019-04-06T00:00:16.577Z,2.74
2019-04-06T00:01:16.626Z,2.79
2019-04-06T00:02:16.894Z,2.79
2019-04-06T00:03:17.165Z,2.86
2019-04-06T00:04:16.445Z,2.85
2019-04-06T00:05:16.707Z,2.86
2019-04-06T00:06:16.962Z,2.82
2019-04-06T00:07:16.218Z,2.82
2019-04-06T00:08:16.507Z,2.82
2019-04-06T00:09:16.776Z,2.84
2019-04-06T00:10:17.071Z,2.82
2019-04-06T00:11:17.106Z,2.82
2019-04-06T00:12:16.377Z,2.84
2019-04-06T00:13:16.641Z,2.81
2019-04-06T00:14:16.906Z,2.82
2019-04-06T00:15:17.176Z,2.79
2019-04-06T00:16:16.450Z,2.79
2019-04-06T00:17:16.711Z,2.79
2019-04-06T00:18:16.966Z,2.79
2019-04-06T00:19:16.233Z,2.84
2019-04-06T00:20:16.514Z,2.81
2019-04-06T00:21:16.784Z,2.82
2019-04-06T00:22:17.047Z,2.81
2019-04-06T00:23:16.312Z,2.84
2019-04-06T00:24:16.599Z,2.85
2019-04-06T00:25:16.965Z,2.86
2019-04-06T00:26:16.232Z,2.86
2019-04-06T00:27:16.490Z,2.81
2019-04-06T00:28:16.755Z,2.76
2019-04-06T00:29:17.015Z,2.76
2019-04-06T00:30:16.294Z,2.78
2019-04-06T00:31:16.329Z,2.72
2019-04-06T00:32:16.595Z,2.65
2019-04-06T00:33:16.867Z,2.65
2019-04-06T00:34:17.146Z,2.64
2019-04-06T00:35:16.444Z,2.61
2019-04-06T00:36:16.713Z,2.61
2019-04-06T00:37:16.983Z,2.64
2019-04-06T00:38:16.243Z,2.65
2019-04-06T00:39:16.529Z,2.64
2019-04-06T00:40:16.802Z,2.63
2019-04-06T00:41:16.854Z,2.64
2019-04-06T00:42:17.146Z,2.63
2019-04-06T00:43:16.441Z,2.57
2019-04-06T00:44:16.878Z,2.55
2019-04-06T00:45:16.244Z,2.57
2019-04-06T00:46:16.505Z,2.57
2019-04-06T00:47:16.843Z,2.57
2019-04-06T00:48:17.107Z,2.54
2019-04-06T00:49:16.368Z,2.44
2019-04-06T00:50:16.697Z,2.34
2019-04-06T00:51:16.666Z,2.36
2019-04-06T00:52:16.929Z,2.43
2019-04-06T00:53:17.192Z,2.54
2019-04-06T00:54:17.120Z,2.55
2019-04-06T00:55:16.601Z,2.60
2019-04-06T00:56:16.860Z,2.63
2019-04-06T00:57:17.124Z,2.64
2019-04-06T00:58:16.395Z,2.64
2019-04-06T00:59:16.667Z,2.68
2019-04-06T01:00:16.947Z,2.71
2019-04-06T01:01:16.978Z,2.79
2019-04-06T01:02:16.240Z,2.84
2019-04-06T01:03:16.508Z,2.81
2019-04-06T01:04:16.782Z,2.86
2019-04-06T01:05:17.047Z,2.84
2019-04-06T01:06:16.323Z,2.88
2019-04-06T01:07:16.607Z,2.91
2019-04-06T01:08:16.891Z,2.92
2019-04-06T01:09:17.442Z,2.98
2019-04-06T01:10:16.727Z,2.99
2019-04-06T01:11:16.761Z,2.95
2019-04-06T01:12:17.018Z,2.96
2019-04-06T01:13:16.398Z,2.95
2019-04-06T01:14:16.688Z,2.96
2019-04-06T01:15:16.953Z,2.95
2019-04-06T01:16:16.229Z,2.99
2019-04-06T01:17:16.496Z,3.03
2019-04-06T01:18:16.753Z,3.07
2019-04-06T01:19:17.016Z,3.10
2019-04-06T01:20:16.298Z,3.20
2019-04-06T01:21:16.340Z,3.22
2019-04-06T01:22:16.622Z,3.26
2019-04-06T01:23:16.895Z,3.27
2019-04-06T01:24:17.170Z,3.28
2019-04-06T01:25:16.449Z,3.28
2019-04-06T01:26:16.830Z,3.28
2019-04-06T01:27:17.104Z,3.27
2019-04-06T01:28:16.379Z,3.26
2019-04-06T01:29:16.646Z,3.27
2019-04-06T01:30:16.930Z,3.26
2019-04-06T01:31:16.979Z,3.30
2019-04-06T01:32:16.246Z,3.28
2019-04-06T01:33:16.531Z,3.30
2019-04-06T01:34:16.801Z,3.27
2019-04-06T01:35:17.068Z,3.28
2019-04-06T01:36:16.357Z,3.26
2019-04-06T01:37:16.607Z,3.30
2019-04-06T01:38:16.865Z,3.31
2019-04-06T01:39:17.151Z,3.31
2019-04-06T01:40:16.430Z,3.26
2019-04-06T01:41:16.476Z,3.22
2019-04-06T01:42:16.749Z,3.19
2019-04-06T01:43:17.020Z,3.07
2019-04-06T01:44:16.296Z,3.02
2019-04-06T01:45:16.556Z,2.92
2019-04-06T01:46:16.826Z,2.91
2019-04-06T01:47:16.208Z,2.92
2019-04-06T01:48:16.470Z,2.93
2019-04-06T01:49:16.725Z,2.95
2019-04-06T01:50:16.995Z,2.98
2019-04-06T01:51:17.034Z,3.00
2019-04-06T01:52:16.302Z,2.99
2019-04-06T01:53:16.576Z,2.99
2019-04-06T01:54:16.899Z,3.03
2019-04-06T01:55:17.158Z,3.02
2019-04-06T01:56:18.613Z,3.02
2019-04-06T01:57:16.505Z,3.00
2019-04-06T01:58:16.275Z,3.02
2019-04-06T01:59:16.543Z,3.03
2019-04-06T02:00:16.821Z,3.03
2019-04-06T02:01:16.866Z,2.99
2019-04-06T02:02:17.134Z,2.99
2019-04-06T02:03:16.401Z,3.00
2019-04-06T02:04:16.666Z,2.96
2019-04-06T02:05:17.064Z,2.99
2019-04-06T02:06:16.333Z,3.02
2019-04-06T02:07:16.600Z,3.03
2019-04-06T02:08:16.913Z,2.99
2019-04-06T02:09:17.197Z,2.99
2019-04-06T02:10:16.477Z,2.92
2019-04-06T02:11:16.503Z,2.92
2019-04-06T02:12:16.804Z,2.88
2019-04-06T02:13:17.072Z,2.84
2019-04-06T02:14:16.348Z,2.86
2019-04-06T02:15:16.642Z,2.91
2019-04-06T02:16:16.907Z,2.91
2019-04-06T02:17:17.178Z,2.89
2019-04-06T02:18:16.459Z,2.85
2019-04-06T02:19:16.729Z,2.84
2019-04-06T02:20:17.012Z,2.82
2019-04-06T02:21:17.034Z,2.81
2019-04-06T02:22:16.314Z,2.81
2019-04-06T02:23:16.579Z,2.79
2019-04-06T02:24:16.844Z,2.79
2019-04-06T02:25:17.103Z,2.81
2019-04-06T02:26:16.375Z,2.84
2019-04-06T02:27:16.635Z,2.85
2019-04-06T02:28:16.918Z,2.79
2019-04-06T02:29:16.214Z,2.78
2019-04-06T02:30:16.599Z,2.78
2019-04-06T02:31:16.982Z,2.76
2019-04-06T02:32:16.314Z,2.76
2019-04-06T02:33:16.600Z,2.78
2019-04-06T02:34:16.869Z,2.78
2019-04-06T02:35:17.133Z,2.76
2019-04-06T02:36:16.515Z,2.74
2019-04-06T02:37:16.809Z,2.74
2019-04-06T02:38:17.091Z,2.76
2019-04-06T02:39:16.389Z,2.78
2019-04-06T02:40:16.704Z,2.78
2019-04-06T02:41:16.698Z,2.78
2019-04-06T02:42:16.990Z,2.76
2019-04-06T02:43:16.258Z,2.76
2019-04-06T02:44:16.530Z,2.75
2019-04-06T02:45:16.894Z,2.76
2019-04-06T02:46:16.247Z,2.78
2019-04-06T02:47:16.505Z,2.78
2019-04-06T02:48:16.820Z,2.81
2019-04-06T02:49:17.450Z,2.76
2019-04-06T02:50:16.733Z,2.79
2019-04-06T02:51:16.761Z,2.81
2019-04-06T02:52:17.033Z,2.79
2019-04-06T02:53:16.317Z,2.84
2019-04-06T02:54:16.818Z,2.85
2019-04-06T02:55:17.112Z,2.81
2019-04-06T02:56:16.382Z,2.84
2019-04-06T02:57:16.671Z,2.81
2019-04-06T02:58:16.956Z,2.82
2019-04-06T02:59:16.478Z,2.85
2019-04-06T03:00:16.753Z,2.81
2019-04-06T03:01:16.822Z,2.81
2019-04-06T03:02:17.089Z,2.81
2019-04-06T03:03:16.349Z,2.79
2019-04-06T03:04:16.625Z,2.79
2019-04-06T03:05:16.883Z,2.81
2019-04-06T03:06:17.258Z,2.82
2019-04-06T03:07:16.661Z,2.78
2019-04-06T03:08:17.151Z,2.75
2019-04-06T03:09:16.438Z,2.76
2019-04-06T03:10:16.732Z,2.72
2019-04-06T03:11:16.772Z,2.78
2019-04-06T03:12:17.202Z,2.78
2019-04-06T03:13:16.501Z,2.78
2019-04-06T03:14:16.772Z,2.75
2019-04-06T03:15:17.040Z,2.76
2019-04-06T03:16:16.402Z,2.72
2019-04-06T03:17:16.713Z,2.75
2019-04-06T03:18:17.043Z,2.79
2019-04-06T03:19:16.347Z,2.74
2019-04-06T03:20:16.625Z,2.74
2019-04-06T03:21:16.654Z,2.75
2019-04-06T03:22:16.936Z,2.78
2019-04-06T03:23:16.320Z,2.75
2019-04-06T03:24:16.778Z,2.74
2019-04-06T03:25:17.074Z,2.74
2019-04-06T03:26:16.346Z,2.72
2019-04-06T03:27:16.882Z,2.71
2019-04-06T03:28:17.150Z,2.72
2019-04-06T03:29:16.867Z,2.75
2019-04-06T03:30:17.161Z,2.76
2019-04-06T03:31:16.229Z,2.76
2019-04-06T03:32:16.707Z,2.82
2019-04-06T03:33:17.022Z,2.82
2019-04-06T03:34:20.442Z,2.82
2019-04-06T03:35:16.732Z,2.79
2019-04-06T03:36:17.043Z,2.78
2019-04-06T03:37:16.321Z,2.78
2019-04-06T03:38:16.600Z,2.74
2019-04-06T03:39:17.004Z,2.75
2019-04-06T03:40:16.302Z,2.75
2019-04-06T03:41:16.356Z,2.78
2019-04-06T03:42:16.621Z,2.79
2019-04-06T03:43:16.911Z,2.75
2019-04-06T03:44:16.377Z,2.75
2019-04-06T03:45:16.672Z,2.78
2019-04-06T03:46:16.947Z,2.76
2019-04-06T03:47:16.216Z,2.78
2019-04-06T03:48:16.482Z,2.76
2019-04-06T03:49:16.758Z,2.79
2019-04-06T03:50:17.054Z,2.75
2019-04-06T03:51:17.095Z,2.75
2019-04-06T03:52:16.376Z,2.75
2019-04-06T03:53:16.682Z,2.74
2019-04-06T03:54:17.009Z,2.57
2019-04-06T03:55:16.316Z,2.58
2019-04-06T03:56:16.684Z,2.60
2019-04-06T03:57:17.220Z,2.50
2019-04-06T03:58:16.602Z,2.47
2019-04-06T03:59:16.867Z,2.43
2019-04-06T04:00:17.274Z,2.41
2019-04-06T04:01:16.206Z,2.41
2019-04-06T04:02:16.495Z,2.41
2019-04-06T04:03:16.751Z,2.40
2019-04-06T04:04:17.185Z,2.40
2019-04-06T04:05:16.449Z,2.41
2019-04-06T04:06:16.722Z,2.44
2019-04-06T04:07:16.993Z,2.44
2019-04-06T04:08:16.418Z,2.44
2019-04-06T04:09:16.861Z,2.41
2019-04-06T04:10:17.200Z,2.38
2019-04-06T04:11:17.180Z,2.40
2019-04-06T04:12:16.462Z,2.40
2019-04-06T04:13:16.745Z,2.44
2019-04-06T04:14:17.006Z,2.41
2019-04-06T04:15:16.266Z,2.43
2019-04-06T04:16:16.529Z,2.44
2019-04-06T04:17:16.795Z,2.44
2019-04-06T04:18:17.089Z,2.45
2019-04-06T04:19:16.545Z,2.45
2019-04-06T04:20:16.843Z,2.47
2019-04-06T04:21:16.896Z,2.47
2019-04-06T04:22:17.166Z,2.51
2019-04-06T04:23:16.440Z,2.53
2019-04-06T04:24:16.726Z,2.53
2019-04-06T04:25:17.018Z,2.55
2019-04-06T04:26:16.282Z,2.54
2019-04-06T04:27:27.613Z,2.54
2019-04-06T04:28:16.747Z,2.54
2019-04-06T04:29:17.014Z,2.57
2019-04-06T04:30:30.715Z,2.54
2019-04-06T04:31:16.904Z,2.55
2019-04-06T04:32:17.198Z,2.54
2019-04-06T04:33:16.521Z,2.51
2019-04-06T04:34:16.803Z,2.48
2019-04-06T04:35:18.571Z,2.45
2019-04-06T04:36:16.584Z,2.44
2019-04-06T04:37:16.871Z,2.41
2019-04-06T04:38:17.277Z,2.41
2019-04-06T04:39:16.577Z,2.38
2019-04-06T04:40:16.860Z,2.38
2019-04-06T04:41:16.898Z,2.34
2019-04-06T04:42:17.173Z,2.29
2019-04-06T04:43:16.554Z,2.24
2019-04-06T04:44:16.855Z,2.19
2019-04-06T04:45:17.184Z,2.23
2019-04-06T04:46:16.461Z,2.19
2019-04-06T04:47:16.728Z,2.21
2019-04-06T04:48:16.998Z,2.19
2019-04-06T04:49:16.276Z,2.17
2019-04-06T04:50:16.562Z,2.17
2019-04-06T04:51:16.663Z,2.17
2019-04-06T04:52:16.944Z,2.16
2019-04-06T04:53:16.216Z,2.16
2019-04-06T04:54:16.486Z,2.13
2019-04-06T04:55:16.799Z,2.12
2019-04-06T04:56:17.064Z,2.09
2019-04-06T04:57:16.336Z,2.10
2019-04-06T04:58:16.608Z,2.09
2019-04-06T04:59:16.880Z,2.10
2019-04-06T05:00:17.184Z,2.12
2019-04-06T05:01:17.225Z,2.12
2019-04-06T05:02:16.507Z,2.10
2019-04-06T05:03:16.908Z,2.09
2019-04-06T05:04:17.479Z,2.07
2019-04-06T05:05:16.758Z,2.07
2019-04-06T05:06:17.160Z,2.06
2019-04-06T05:07:16.432Z,2.06
2019-04-06T05:08:16.738Z,2.07
2019-04-06T05:09:17.092Z,2.09
2019-04-06T05:10:16.396Z,2.06
2019-04-06T05:11:16.447Z,2.09
2019-04-06T05:12:16.876Z,2.07
2019-04-06T05:13:17.153Z,2.05
2019-04-06T05:14:16.420Z,2.05
2019-04-06T05:15:16.745Z,2.07
2019-04-06T05:16:17.017Z,2.05
2019-04-06T05:17:16.332Z,1.99
2019-04-06T05:18:16.611Z,1.95
2019-04-06T05:19:17.026Z,1.93
2019-04-06T05:20:16.300Z,1.93
2019-04-06T05:21:16.353Z,1.92
2019-04-06T05:22:16.620Z,2.00
2019-04-06T05:23:16.889Z,2.02
2019-04-06T05:24:17.159Z,1.99
2019-04-06T05:25:16.432Z,1.96
2019-04-06T05:26:16.714Z,1.99
2019-04-06T05:27:17.124Z,1.99
2019-04-06T05:28:16.436Z,1.93
2019-04-06T05:29:16.700Z,1.89
2019-04-06T05:30:16.983Z,1.90
2019-04-06T05:31:17.030Z,1.92
2019-04-06T05:32:16.297Z,1.92
2019-04-06T05:33:16.581Z,1.96
2019-04-06T05:34:16.893Z,1.96
2019-04-06T05:35:17.352Z,2.00
2019-04-06T05:36:16.686Z,2.06
2019-04-06T05:37:16.951Z,2.09
2019-04-06T05:38:16.227Z,2.10
2019-04-06T05:39:16.496Z,2.14
2019-04-06T05:40:16.770Z,2.20
2019-04-06T05:41:16.793Z,2.23
2019-04-06T05:42:17.060Z,2.24
2019-04-06T05:43:16.338Z,2.29
2019-04-06T05:44:16.609Z,2.30
2019-04-06T05:45:17.042Z,2.33
2019-04-06T05:46:16.454Z,2.30
2019-04-06T05:47:17.237Z,2.34
2019-04-06T05:48:16.619Z,2.33
2019-04-06T05:49:16.889Z,2.36
2019-04-06T05:50:17.163Z,2.36
2019-04-06T05:51:16.210Z,2.38
2019-04-06T05:52:16.481Z,2.38
2019-04-06T05:53:16.918Z,2.48
2019-04-06T05:54:16.224Z,2.50
2019-04-06T05:55:16.494Z,2.57
2019-04-06T05:56:16.798Z,2.58
2019-04-06T05:57:17.078Z,2.68
2019-04-06T05:58:16.378Z,2.75
2019-04-06T05:59:16.658Z,2.79
2019-04-06T06:00:16.941Z,2.93
2019-04-06T06:01:16.977Z,2.93
2019-04-06T06:02:16.241Z,2.98
2019-04-06T06:03:16.515Z,2.96
2019-04-06T06:04:16.781Z,3.00
2019-04-06T06:05:17.045Z,3.03
2019-04-06T06:06:16.316Z,3.07
2019-04-06T06:07:16.578Z,3.14
2019-04-06T06:08:16.910Z,3.20
2019-04-06T06:09:17.173Z,3.20
2019-04-06T06:10:16.448Z,3.23
2019-04-06T06:11:16.506Z,3.27
2019-04-06T06:12:16.871Z,3.28
2019-04-06T06:13:17.151Z,3.31
2019-04-06T06:14:16.551Z,3.36
2019-04-06T06:15:16.833Z,3.43
2019-04-06T06:16:17.116Z,3.46
2019-04-06T06:17:16.558Z,3.44
2019-04-06T06:18:25.591Z,3.55
2019-04-06T06:19:16.965Z,3.57
2019-04-06T06:20:16.258Z,3.61
2019-04-06T06:21:16.290Z,3.65
2019-04-06T06:22:16.555Z,3.64
2019-04-06T06:23:16.812Z,3.61
2019-04-06T06:24:17.086Z,3.71
2019-04-06T06:25:16.361Z,3.75
2019-04-06T06:26:16.816Z,3.90
2019-04-06T06:27:17.190Z,3.88
2019-04-06T06:28:16.484Z,3.96
2019-04-06T06:29:16.860Z,3.96
2019-04-06T06:30:17.283Z,3.96
2019-04-06T06:31:17.288Z,3.92
2019-04-06T06:32:16.569Z,3.95
2019-04-06T06:33:16.833Z,3.92
2019-04-06T06:34:17.233Z,3.90
2019-04-06T06:35:16.580Z,3.79
2019-04-06T06:36:16.883Z,3.82
2019-04-06T06:37:17.210Z,3.93
2019-04-06T06:38:16.496Z,3.99
2019-04-06T06:39:16.766Z,3.99
2019-04-06T06:40:17.045Z,4.10
2019-04-06T06:41:17.080Z,4.12
2019-04-06T06:42:16.386Z,4.17
2019-04-06T06:43:16.666Z,4.19
2019-04-06T06:44:16.954Z,4.28
2019-04-06T06:45:16.318Z,4.41
2019-04-06T06:46:16.674Z,4.44
2019-04-06T06:47:16.948Z,4.46
2019-04-06T06:48:16.362Z,4.48
2019-04-06T06:49:16.692Z,4.53
2019-04-06T06:50:16.969Z,4.57
2019-04-06T06:51:17.014Z,4.60
2019-04-06T06:52:16.274Z,4.65
2019-04-06T06:53:16.553Z,4.75
2019-04-06T06:54:16.818Z,4.82
2019-04-06T06:55:17.181Z,4.88
2019-04-06T06:56:16.646Z,4.86
2019-04-06T06:57:16.946Z,4.92
2019-04-06T06:58:24.498Z,4.95
2019-04-06T06:59:16.399Z,5.05
2019-04-06T07:00:16.680Z,5.09
2019-04-06T07:01:16.703Z,5.20
2019-04-06T07:02:17.027Z,5.30
2019-04-06T07:03:16.297Z,5.48
2019-04-06T07:04:16.555Z,5.37
2019-04-06T07:05:16.843Z,5.47
2019-04-06T07:06:17.109Z,5.60
2019-04-06T07:07:16.386Z,5.61
2019-04-06T07:08:16.648Z,5.61
2019-04-06T07:09:16.904Z,5.65
2019-04-06T07:10:17.170Z,5.79
2019-04-06T07:11:16.212Z,5.85
2019-04-06T07:12:16.472Z,5.96
2019-04-06T07:13:16.736Z,6.00
2019-04-06T07:14:17.203Z,6.12
2019-04-06T07:15:16.873Z,6.05
2019-04-06T07:16:16.227Z,5.96
2019-04-06T07:17:16.721Z,5.92
2019-04-06T07:18:17.005Z,6.00
2019-04-06T07:19:16.264Z,6.13
2019-04-06T07:20:16.613Z,6.24
2019-04-06T07:21:17.036Z,6.30
2019-04-06T07:22:16.564Z,6.57
2019-04-06T07:23:16.833Z,6.64
2019-04-06T07:24:17.196Z,6.74
2019-04-06T07:25:16.469Z,6.81
2019-04-06T07:26:16.872Z,6.79
2019-04-06T07:27:17.176Z,6.89
2019-04-06T07:28:16.872Z,6.92
2019-04-06T07:29:17.172Z,7.02
2019-04-06T07:30:16.514Z,7.02
2019-04-06T07:31:16.588Z,7.06
2019-04-06T07:32:16.981Z,7.05
2019-04-06T07:33:16.433Z,7.06
2019-04-06T07:34:16.795Z,7.19
2019-04-06T07:35:17.050Z,7.19
2019-04-06T07:36:16.323Z,7.23
2019-04-06T07:37:16.683Z,7.26
2019-04-06T07:38:16.948Z,7.23
2019-04-06T07:39:16.208Z,7.22
2019-04-06T07:40:16.490Z,7.23
2019-04-06T07:41:16.537Z,7.23
2019-04-06T07:42:16.809Z,7.30
2019-04-06T07:43:17.068Z,7.40
2019-04-06T07:44:16.390Z,7.48
2019-04-06T07:45:16.697Z,7.51
2019-04-06T07:46:16.954Z,7.59
2019-04-06T07:47:16.223Z,7.62
2019-04-06T07:48:16.539Z,7.68
2019-04-06T07:49:16.996Z,7.71
2019-04-06T07:50:16.328Z,7.74
2019-04-06T07:51:16.360Z,7.74
2019-04-06T07:52:16.646Z,7.75
2019-04-06T07:53:16.905Z,7.85
2019-04-06T07:54:17.169Z,7.85
2019-04-06T07:55:16.442Z,8.24
2019-04-06T07:56:16.790Z,8.33
2019-04-06T07:57:17.081Z,8.34
2019-04-06T07:58:16.337Z,8.34
2019-04-06T07:59:16.604Z,8.50
2019-04-06T08:00:17.103Z,8.51
2019-04-06T08:01:16.972Z,8.57
2019-04-06T08:02:16.246Z,8.58
2019-04-06T08:03:16.513Z,8.78
2019-04-06T08:04:16.816Z,8.85
2019-04-06T08:05:17.082Z,8.96
2019-04-06T08:06:16.353Z,8.98
2019-04-06T08:07:16.791Z,8.98
2019-04-06T08:08:17.080Z,9.17
2019-04-06T08:09:16.342Z,9.20
2019-04-06T08:10:16.621Z,9.13
2019-04-06T08:11:16.663Z,9.17
2019-04-06T08:12:17.002Z,9.16
2019-04-06T08:13:16.436Z,9.29
2019-04-06T08:14:16.702Z,9.27
2019-04-06T08:15:17.009Z,9.31
2019-04-06T08:16:16.273Z,9.41
2019-04-06T08:17:16.536Z,9.71
2019-04-06T08:18:17.108Z,9.78
2019-04-06T08:19:16.366Z,9.68
2019-04-06T08:20:16.639Z,9.65
2019-04-06T08:21:16.948Z,9.69
2019-04-06T08:22:16.865Z,9.64
2019-04-06T08:23:17.126Z,9.66
2019-04-06T08:24:16.393Z,9.93
2019-04-06T08:25:16.660Z,9.93
2019-04-06T08:26:16.985Z,9.89
2019-04-06T08:27:16.245Z,10.05
2019-04-06T08:28:16.517Z,10.08
2019-04-06T08:29:16.869Z,10.13
2019-04-06T08:30:17.142Z,10.20
2019-04-06T08:31:16.229Z,10.16
2019-04-06T08:32:16.541Z,10.19
2019-04-06T08:33:16.827Z,10.39
2019-04-06T08:34:17.097Z,10.43
2019-04-06T08:35:25.039Z,10.44
2019-04-06T08:36:17.034Z,10.63
2019-04-06T08:37:16.299Z,10.99
2019-04-06T08:38:16.626Z,10.95
2019-04-06T08:39:16.898Z,10.99
2019-04-06T08:40:17.161Z,10.95
2019-04-06T08:41:16.226Z,11.00
2019-04-06T08:42:16.557Z,11.06
2019-04-06T08:43:16.829Z,11.16
2019-04-06T08:44:17.090Z,11.31
2019-04-06T08:45:16.436Z,11.39
2019-04-06T08:46:16.713Z,11.39
2019-04-06T08:47:16.966Z,11.25
2019-04-06T08:48:16.243Z,11.19
2019-04-06T08:49:16.662Z,11.23
2019-04-06T08:50:17.034Z,11.40
2019-04-06T08:51:17.094Z,11.68
2019-04-06T08:52:16.463Z,11.74
2019-04-06T08:53:16.982Z,11.64
2019-04-06T08:54:16.414Z,11.67
2019-04-06T08:55:16.915Z,11.70
2019-04-06T08:56:16.234Z,11.84
2019-04-06T08:57:16.566Z,11.78
2019-04-06T08:58:16.847Z,11.80
2019-04-06T08:59:17.115Z,11.95
2019-04-06T09:00:16.387Z,11.99
2019-04-06T09:01:16.419Z,12.01
2019-04-06T09:02:16.908Z,12.12
2019-04-06T09:03:17.206Z,12.12
2019-04-06T09:04:16.637Z,12.22
2019-04-06T09:05:16.955Z,12.37
2019-04-06T09:06:16.481Z,12.43
2019-04-06T09:07:16.950Z,12.47
2019-04-06T09:08:16.229Z,12.47
2019-04-06T09:09:16.492Z,12.56
2019-04-06T09:10:16.758Z,12.54
2019-04-06T09:11:16.854Z,12.53
2019-04-06T09:12:17.137Z,12.63
2019-04-06T09:13:16.535Z,12.60
2019-04-06T09:14:16.810Z,12.75
2019-04-06T09:15:17.111Z,12.78
2019-04-06T09:16:16.566Z,12.75
2019-04-06T09:17:16.850Z,12.88
2019-04-06T09:18:17.131Z,12.88
2019-04-06T09:19:16.392Z,12.74
2019-04-06T09:20:16.717Z,12.96
2019-04-06T09:21:16.757Z,12.99
2019-04-06T09:22:17.071Z,12.98
2019-04-06T09:23:16.405Z,13.19
2019-04-06T09:24:16.752Z,13.18
2019-04-06T09:25:17.024Z,13.22
2019-04-06T09:26:16.594Z,13.29
2019-04-06T09:27:16.946Z,13.37
2019-04-06T09:28:16.208Z,13.43
2019-04-06T09:29:22.853Z,13.46
2019-04-06T09:30:16.241Z,13.68
2019-04-06T09:31:16.301Z,13.97
2019-04-06T09:32:16.617Z,14.01
2019-04-06T09:33:16.889Z,14.19
2019-04-06T09:34:17.158Z,14.28
2019-04-06T09:35:16.424Z,14.43
2019-04-06T09:36:16.705Z,14.52
2019-04-06T09:37:16.964Z,14.30
2019-04-06T09:38:16.384Z,14.33
2019-04-06T09:39:16.666Z,14.39
2019-04-06T09:40:16.930Z,14.52
2019-04-06T09:41:17.051Z,14.52
2019-04-06T09:42:16.347Z,14.59
2019-04-06T09:43:16.612Z,14.74
2019-04-06T09:44:16.888Z,14.73
2019-04-06T09:45:16.382Z,14.60
2019-04-06T09:46:16.776Z,14.74
2019-04-06T09:47:17.079Z,14.66
2019-04-06T09:48:16.343Z,14.59
2019-04-06T09:49:16.611Z,14.49
2019-04-06T09:50:17.125Z,14.49
2019-04-06T09:51:17.215Z,14.49
2019-04-06T09:52:16.626Z,14.53
2019-04-06T09:53:16.901Z,14.59
2019-04-06T09:54:17.175Z,14.68
2019-04-06T09:55:16.445Z,14.71
2019-04-06T09:56:16.719Z,14.78
2019-04-06T09:57:16.978Z,14.97
2019-04-06T09:58:16.441Z,15.02
2019-04-06T09:59:16.746Z,15.23
2019-04-06T10:00:17.034Z,15.29
2019-04-06T10:01:17.068Z,15.21
2019-04-06T10:02:16.366Z,15.15
2019-04-06T10:03:16.627Z,15.21
2019-04-06T10:04:16.898Z,15.23
2019-04-06T10:05:17.166Z,15.09
2019-04-06T10:06:16.513Z,15.16
2019-04-06T10:07:16.795Z,15.21
2019-04-06T10:08:17.068Z,15.28
2019-04-06T10:09:16.338Z,15.42
2019-04-06T10:10:16.605Z,15.59
2019-04-06T10:11:16.846Z,15.66
2019-04-06T10:12:17.156Z,15.66
2019-04-06T10:13:16.435Z,15.76
2019-04-06T10:14:16.704Z,15.90
2019-04-06T10:15:16.975Z,15.87
2019-04-06T10:16:16.238Z,15.97
2019-04-06T10:17:16.493Z,16.04
2019-04-06T10:18:16.762Z,16.02
2019-04-06T10:19:17.034Z,15.94
2019-04-06T10:20:16.309Z,16.04
2019-04-06T10:21:16.421Z,16.19
2019-04-06T10:22:16.714Z,15.85
2019-04-06T10:23:17.029Z,15.66
2019-04-06T10:24:16.292Z,15.71
2019-04-06T10:25:16.558Z,15.54
2019-04-06T10:26:16.858Z,15.67
2019-04-06T10:27:17.252Z,15.80
2019-04-06T10:28:16.792Z,15.85
2019-04-06T10:29:17.062Z,15.90
2019-04-06T10:30:16.337Z,15.98
2019-04-06T10:31:16.384Z,16.08
2019-04-06T10:32:16.877Z,16.00
2019-04-06T10:33:17.147Z,16.15
2019-04-06T10:34:16.412Z,16.09
2019-04-06T10:35:16.696Z,16.09
2019-04-06T10:36:16.961Z,16.17
2019-04-06T10:37:16.233Z,16.11
2019-04-06T10:38:16.511Z,16.18
2019-04-06T10:39:16.773Z,16.22
2019-04-06T10:40:17.122Z,16.28
2019-04-06T10:41:17.228Z,16.21
2019-04-06T10:42:16.507Z,16.00
2019-04-06T10:43:17.049Z,15.95
2019-04-06T10:44:16.337Z,15.98
2019-04-06T10:45:16.602Z,15.95
2019-04-06T10:46:17.008Z,15.90
2019-04-06T10:47:16.295Z,15.82
2019-04-06T10:48:16.812Z,15.59
2019-04-06T10:49:17.379Z,15.66
2019-04-06T10:50:16.986Z,15.49
2019-04-06T10:51:16.714Z,15.47
2019-04-06T10:52:16.983Z,15.59
2019-04-06T10:53:16.250Z,15.62
2019-04-06T10:54:16.527Z,15.59
2019-04-06T10:55:16.803Z,15.74
2019-04-06T10:56:17.095Z,15.74
2019-04-06T10:57:16.387Z,15.87
2019-04-06T10:58:16.678Z,15.95
2019-04-06T10:59:17.210Z,16.29
2019-04-06T11:00:16.548Z,16.18
2019-04-06T11:01:16.550Z,16.29
2019-04-06T11:02:16.828Z,16.31
2019-04-06T11:03:17.090Z,16.28
2019-04-06T11:04:16.355Z,16.28
2019-04-06T11:05:16.642Z,16.45
2019-04-06T11:06:16.919Z,16.83
2019-04-06T11:07:16.578Z,16.83
2019-04-06T11:08:16.846Z,16.63
2019-04-06T11:09:17.118Z,17.00
2019-04-06T11:10:16.711Z,17.13
2019-04-06T11:11:19.934Z,17.08
2019-04-06T11:12:16.986Z,16.95
2019-04-06T11:13:16.254Z,16.93
2019-04-06T11:14:16.516Z,16.88
2019-04-06T11:15:16.990Z,17.14
2019-04-06T11:16:16.265Z,17.42
2019-04-06T11:17:16.529Z,17.48
2019-04-06T11:18:16.810Z,17.38
2019-04-06T11:19:17.064Z,17.39
2019-04-06T11:20:16.335Z,17.21
2019-04-06T11:21:16.608Z,17.22
2019-04-06T11:22:17.437Z,17.26
2019-04-06T11:23:16.820Z,17.43
2019-04-06T11:24:17.106Z,17.56
2019-04-06T11:25:16.401Z,17.72
2019-04-06T11:26:16.668Z,17.76
2019-04-06T11:27:16.933Z,17.84
2019-04-06T11:28:16.593Z,17.83
2019-04-06T11:29:16.857Z,17.62
2019-04-06T11:30:17.346Z,17.66
2019-04-06T11:31:17.480Z,17.69
2019-04-06T11:32:17.020Z,17.48
2019-04-06T11:33:16.290Z,17.10
2019-04-06T11:34:16.557Z,16.97
2019-04-06T11:35:17.074Z,17.41
2019-04-06T11:36:16.632Z,17.81
2019-04-06T11:37:16.929Z,17.60
2019-04-06T11:38:17.185Z,17.65
2019-04-06T11:39:16.538Z,17.77
2019-04-06T11:40:17.042Z,17.70
2019-04-06T11:41:16.861Z,17.77
2019-04-06T11:42:17.119Z,17.79
2019-04-06T11:43:16.374Z,17.65
2019-04-06T11:44:16.636Z,17.83
2019-04-06T11:45:16.893Z,17.66
2019-04-06T11:46:17.341Z,17.72
2019-04-06T11:47:17.134Z,17.70
2019-04-06T11:48:16.753Z,17.63
2019-04-06T11:49:17.036Z,17.41
2019-04-06T11:50:16.324Z,17.15
2019-04-06T11:51:16.360Z,17.19
2019-04-06T11:52:16.627Z,17.14
2019-04-06T11:53:17.132Z,17.13
2019-04-06T11:54:16.427Z,17.11
2019-04-06T11:55:16.692Z,17.07
2019-04-06T11:56:16.964Z,16.98
2019-04-06T11:57:16.222Z,16.93
2019-04-06T11:58:16.534Z,17.04
2019-04-06T11:59:16.828Z,17.05
2019-04-06T12:00:24.976Z,17.07
2019-04-06T12:01:16.249Z,17.13
2019-04-06T12:02:16.515Z,17.11
2019-04-06T12:03:16.806Z,17.35
2019-04-06T12:04:17.081Z,17.31
2019-04-06T12:05:16.350Z,17.23
2019-04-06T12:06:16.868Z,17.42
2019-04-06T12:07:16.252Z,17.35
2019-04-06T12:08:16.854Z,17.23
2019-04-06T12:09:17.143Z,17.04
2019-04-06T12:10:16.422Z,16.98
2019-04-06T12:11:16.455Z,17.28
2019-04-06T12:12:16.718Z,17.16
2019-04-06T12:13:16.994Z,17.25
2019-04-06T12:14:16.397Z,17.50
2019-04-06T12:15:16.680Z,17.76
2019-04-06T12:16:16.960Z,17.73
2019-04-06T12:17:16.714Z,17.71
2019-04-06T12:18:17.820Z,17.71
2019-04-06T12:19:16.859Z,17.67
2019-04-06T12:20:17.133Z,17.49
2019-04-06T12:21:17.460Z,17.40
2019-04-06T12:22:16.735Z,17.42
2019-04-06T12:23:17.329Z,17.56
2019-04-06T12:24:16.799Z,17.61
2019-04-06T12:25:17.089Z,17.61
2019-04-06T12:26:16.405Z,17.56
2019-04-06T12:27:16.681Z,17.60
2019-04-06T12:28:16.937Z,17.81
2019-04-06T12:29:17.206Z,17.71
2019-04-06T12:30:16.492Z,17.60
2019-04-06T12:31:16.514Z,17.67
2019-04-06T12:32:16.781Z,17.69
2019-04-06T12:33:17.040Z,17.77
2019-04-06T12:34:16.303Z,17.77
2019-04-06T12:35:16.574Z,17.78
2019-04-06T12:36:16.837Z,17.91
2019-04-06T12:37:17.116Z,18.02
2019-04-06T12:38:16.630Z,18.02
2019-04-06T12:39:17.041Z,18.02
2019-04-06T12:40:16.333Z,18.04
2019-04-06T12:41:16.365Z,18.08
2019-04-06T12:42:16.641Z,18.15
2019-04-06T12:43:16.913Z,18.08
2019-04-06T12:44:17.179Z,18.19
2019-04-06T12:45:16.466Z,18.26
2019-04-06T12:46:16.902Z,18.40
2019-04-06T12:47:17.451Z,18.57
2019-04-06T12:48:17.173Z,18.56
2019-04-06T12:49:16.703Z,18.66
2019-04-06T12:50:17.168Z,18.77
2019-04-06T12:51:17.214Z,18.82
2019-04-06T12:52:16.821Z,18.99
2019-04-06T12:53:17.137Z,18.96
2019-04-06T12:54:17.912Z,19.01
2019-04-06T12:55:16.464Z,18.96
2019-04-06T12:56:16.738Z,18.78
2019-04-06T12:57:17.000Z,18.78
2019-04-06T12:58:16.264Z,18.58
2019-04-06T12:59:16.944Z,18.63
2019-04-06T13:00:16.217Z,18.63
2019-04-06T13:01:16.639Z,18.29
2019-04-06T13:02:16.937Z,18.22
2019-04-06T13:03:17.204Z,18.36
2019-04-06T13:04:16.464Z,18.20
2019-04-06T13:05:16.756Z,18.30
2019-04-06T13:06:17.029Z,18.17
2019-04-06T13:07:16.444Z,18.12
2019-04-06T13:08:16.745Z,18.09
2019-04-06T13:09:17.011Z,18.16